ホーチミン の空港の天気 - METARとTAF

タンソンニャット国際空港 (ホーチミン) ( VVTS / SGN ) - ベトナム ホーチミン市
飛行場実況気象(Metar)
観測時間05/29 05:30 ICT (05/28 22:30 UTC)
風向・風速南南西 2m/s
視程10km以上
天気現象
少しの雲 雲底高度 460m
全天の4割程度の雲 雲底高度 1520m
気温26℃
湿度89%
気圧1006hPa
METARVVTS 282230Z 21004KT 170V230 9999 FEW015 SCT050 26/24 Q1006 NOSIG
過去の天気等 Google飛行場航空写真 Wunderground天気予報

過去48時間のMETAR

飛行場予報(TAF)
発表時間: 5/29 00:00 ICT (5/28 17:00 UTC)
予報対象時間: 29日1時 ICT ~ 30日7時 ICT
風向・風速西南西 4m/s
視程10km以上
全天の4割程度の雲 雲底高度 460m
全天の4割程度の雲 雲底高度 1520m
29日12時 ICT ~ 29日15時 ICT に一時的に
風向・風速西南西 8m/s 瞬間風速 14m/s
視程5000m
天気現象しゅう雨
全天の4割程度の雲 雲底高度 400m
少しの積乱雲 雲底高度 460m
全天の4割程度の雲 雲底高度 1220m
29日15時 ICT ~ 29日19時 ICT に一時的に
風向・風速西南西 8m/s 瞬間風速 16m/s
視程2000m
天気現象強い雷雨
全天の8割程度の雲 雲底高度 400m
全天の4割程度の積乱雲 雲底高度 460m
全天の8割程度の雲 雲底高度 1220m
TAF VVTS 281700Z 2818/2924 25008KT 9999 SCT015 SCT050
TEMPO 2905/2908 25015G28KT 5000 SHRA SCT013 FEW015CB SCT040
TEMPO 2908/2912 25016G32KT 2000 +TSRA BKN013 SCT015CB BKN040